Planet Ace — 3EYF9 — position and weather

sailwx.info

Track history (hours):
 
Tides and Currents Weather Stations Pressure Air Temp Water Temp Dewpoint Dewpoint Depression Visibility Wind Speed Wind Dir Waves Ship Positions

Planet Ace

Last reported at 2015-Aug-05 11:28 UTC. Time now 2015-Aug-05 12:29 UTC.
Position N 51°26' E 000°44'.

Length 188 m; beam 28.2 m.

Type: Cargo ship. MMSI: 352168000.

Date/timePositionNaut miles runAvg speedWind from/ knotsBaromVisibWave heightAir tempDewpointWater temp
2015-Aug-05 11:28N 51°26' E 000°44'0 0.0
2015-Aug-05 10:31N 51°26' E 000°44'0 0.0
2015-Aug-05 09:25N 51°26' E 000°44'0 0.0
2015-Aug-05 08:28N 51°26' E 000°44'0 0.0
2015-Aug-05 07:28N 51°26' E 000°44'0 0.0
2015-Aug-05 06:25N 51°26' E 000°44'0 0.2
2015-Aug-05 05:33N 51°26' E 000°44'9 8.5
2015-Aug-05 04:34N 51°29' E 000°57'1312.9
2015-Aug-05 03:33N 51°29' E 001°18'1110.9
2015-Aug-05 02:33N 51°24' E 001°33'1111.1
2015-Aug-05 01:33N 51°13' E 001°37'1313.2
2015-Aug-05 00:34N 50°60' E 001°33'1514.7
2015-Aug-04 23:33N 50°46' E 001°23'7014.0
2015-Aug-04 18:33N 49°53' E 000°13'1312.8
2015-Aug-04 17:33N 49°42' E 000°02'1212.0
2015-Aug-04 16:33N 49°30' E 000°02'6 5.9
2015-Aug-04 15:33N 49°29' E 000°10'1 1.0
2015-Aug-04 14:31N 49°28' E 000°12'0 0.0
2015-Aug-04 13:31N 49°28' E 000°12'0 0.0
2015-Aug-04 12:31N 49°28' E 000°12'0 0.0
2015-Aug-04 11:31N 49°28' E 000°12'0 0.0
2015-Aug-04 10:31N 49°28' E 000°12'0 0.0
2015-Aug-04 09:31N 49°28' E 000°12'0 0.0
2015-Aug-04 08:31N 49°28' E 000°12'0 0.0
2015-Aug-04 07:31N 49°28' E 000°12'0 0.0
2015-Aug-04 06:31N 49°28' E 000°12'0 0.0
2015-Aug-04 05:31N 49°28' E 000°12'0 0.0
2015-Aug-04 04:31N 49°28' E 000°12'0 0.0
2015-Aug-04 03:31N 49°28' E 000°12'0 0.0
2015-Aug-04 02:31N 49°28' E 000°12'0 0.1
2015-Aug-04 01:33N 49°28' E 000°12'1 1.3
2015-Aug-04 00:33N 49°28' E 000°10'10 9.6
2015-Aug-03 23:33N 49°31' W 000°05'6 6.2
2015-Aug-03 22:33N 49°33' W 000°13'1313.2
2015-Aug-03 21:33N 49°38' W 000°32'1818.1
2015-Aug-03 20:33N 49°46' W 000°58'21513.4
2015-Aug-03 04:33N 48°20' W 005°58'39814.7
2015-Aug-02 01:34N 42°15' W 009°45'3514.3
2015-Aug-01 23:07N 41°40' W 009°44'4014.1
2015-Aug-01 20:16N 40°60' W 009°42'1514.1
2015-Aug-01 19:12N 40°45' W 009°42'914.0
2015-Aug-01 18:34N 40°36' W 009°41'1414.0
2015-Aug-01 17:32N 40°22' W 009°47'1313.7
2015-Aug-01 16:33N 40°09' W 009°50'1414.1
2015-Aug-01 15:33N 39°55' W 009°50'1414.1
2015-Aug-01 14:33N 39°41' W 009°51'1413.8
2015-Aug-01 13:33N 39°27' W 009°51'1414.0
2015-Aug-01 12:33N 39°13' W 009°51'1414.0
2015-Aug-01 11:33N 38°59' W 009°51'1414.2
2015-Aug-01 10:33N 38°45' W 009°50'1313.5
2015-Aug-01 09:34N 38°32' W 009°47'1313.3
2015-Aug-01 08:33N 38°19' W 009°43'1313.2
2015-Aug-01 07:33N 38°06' W 009°39'1413.8
2015-Aug-01 06:33N 37°52' W 009°37'1413.8
2015-Aug-01 05:33N 37°39' W 009°33'4513.9
2015-Aug-01 02:20N 36°55' W 009°20'3813.1
2015-Jul-31 23:28N 36°36' W 008°40'312 6.3
2015-Jul-29 22:13N 36°27' W 002°12'1015.5
2015-Jul-29 21:32N 36°33' W 002°01'1814.8
2015-Jul-29 20:21N 36°44' W 001°45'1214.6
2015-Jul-29 19:33N 36°52' W 001°34'1515.0
2015-Jul-29 18:33N 37°02' W 001°20'1515.5
2015-Jul-29 17:33N 37°12' W 001°05'1615.6
2015-Jul-29 16:33N 37°23' W 000°51'1515.5
2015-Jul-29 15:33N 37°33' W 000°36'1515.3
2015-Jul-29 14:33N 37°45' W 000°25'1515.4
2015-Jul-29 13:33N 37°58' W 000°14'1515.2
2015-Jul-29 12:33N 38°11' W 000°04'1515.1
2015-Jul-29 11:33N 38°23' E 000°07'1515.2
2015-Jul-29 10:33N 38°36' E 000°18'1615.6
2015-Jul-29 09:32N 38°50' E 000°28'3415.2
2015-Jul-29 07:17N 39°20' E 000°49'3215.1
2015-Jul-29 05:09N 39°49' E 001°08'914.9
2015-Jul-29 04:33N 39°57' E 001°13'1515.2
2015-Jul-29 03:33N 40°10' E 001°22'1514.8
2015-Jul-29 02:31N 40°23' E 001°32'1515.3
2015-Jul-29 01:33N 40°36' E 001°42'137 4.0
2015-Jul-27 15:33N 42°13' E 003°51'1817.8
2015-Jul-27 14:33N 42°26' E 004°08'1817.7
2015-Jul-27 13:33N 42°40' E 004°24'1817.5
2015-Jul-27 12:33N 42°53' E 004°40'1716.7
2015-Jul-27 11:33N 43°05' E 004°54'1514.6
2015-Jul-27 10:34N 43°20' E 004°59'7 7.2
2015-Jul-27 09:33N 43°24' E 004°51'0 0.0
2015-Jul-27 08:33N 43°24' E 004°51'0 0.0
2015-Jul-27 07:33N 43°24' E 004°51'0 0.0
2015-Jul-27 06:33N 43°24' E 004°51'0 0.0
2015-Jul-27 05:33N 43°24' E 004°51'0 0.0
2015-Jul-27 04:33N 43°24' E 004°51'0 0.0
2015-Jul-27 03:33N 43°24' E 004°51'0 0.0
2015-Jul-27 02:33N 43°24' E 004°51'0 0.0
2015-Jul-27 01:33N 43°24' E 004°51'0 0.0
2015-Jul-27 00:33N 43°24' E 004°51'0 0.0
2015-Jul-26 23:33N 43°24' E 004°51'0 0.1
2015-Jul-26 22:33N 43°24' E 004°51'7 7.2
2015-Jul-26 21:34N 43°20' E 004°59'1010.1
2015-Jul-26 20:34N 43°11' E 005°03'1413.5
2015-Jul-26 19:33N 43°02' E 005°17'1515.3
2015-Jul-26 18:33N 42°58' E 005°37'1615.3
2015-Jul-26 17:31N 42°54' E 005°58'1414.9
2015-Jul-26 16:33N 42°52' E 006°18'1514.7
2015-Jul-26 15:33N 42°52' E 006°38'1414.2
2015-Jul-26 14:34N 42°54' E 006°57'1414.3
2015-Jul-26 13:33N 42°56' E 007°16'  
Track history (hours):
 
Tides and Currents Weather Stations Pressure Air Temp Water Temp Dewpoint Dewpoint Depression Visibility Wind Speed Wind Dir Waves Ship Positions

Planet Ace

Last reported at 2015-Aug-05 11:28 UTC. Time now 2015-Aug-05 12:29 UTC.
Position N 51°26' E 000°44'.

Length 188 m; beam 28.2 m.

Type: Cargo ship. MMSI: 352168000.

Date/timePositionNaut miles runAvg speedWind from/ knotsBaromVisibWave heightAir tempDewpointWater temp
2015-Aug-05 11:28N 51°26' E 000°44'0 0.0
2015-Aug-05 10:31N 51°26' E 000°44'0 0.0
2015-Aug-05 09:25N 51°26' E 000°44'0 0.0
2015-Aug-05 08:28N 51°26' E 000°44'0 0.0
2015-Aug-05 07:28N 51°26' E 000°44'0 0.0
2015-Aug-05 06:25N 51°26' E 000°44'0 0.2
2015-Aug-05 05:33N 51°26' E 000°44'9 8.5
2015-Aug-05 04:34N 51°29' E 000°57'1312.9
2015-Aug-05 03:33N 51°29' E 001°18'1110.9
2015-Aug-05 02:33N 51°24' E 001°33'1111.1
2015-Aug-05 01:33N 51°13' E 001°37'1313.2
2015-Aug-05 00:34N 50°60' E 001°33'1514.7
2015-Aug-04 23:33N 50°46' E 001°23'7014.0
2015-Aug-04 18:33N 49°53' E 000°13'1312.8
2015-Aug-04 17:33N 49°42' E 000°02'1212.0
2015-Aug-04 16:33N 49°30' E 000°02'6 5.9
2015-Aug-04 15:33N 49°29' E 000°10'1 1.0
2015-Aug-04 14:31N 49°28' E 000°12'0 0.0
2015-Aug-04 13:31N 49°28' E 000°12'0 0.0
2015-Aug-04 12:31N 49°28' E 000°12'0 0.0
2015-Aug-04 11:31N 49°28' E 000°12'0 0.0
2015-Aug-04 10:31N 49°28' E 000°12'0 0.0
2015-Aug-04 09:31N 49°28' E 000°12'0 0.0
2015-Aug-04 08:31N 49°28' E 000°12'0 0.0
2015-Aug-04 07:31N 49°28' E 000°12'0 0.0
2015-Aug-04 06:31N 49°28' E 000°12'0 0.0
2015-Aug-04 05:31N 49°28' E 000°12'0 0.0
2015-Aug-04 04:31N 49°28' E 000°12'0 0.0
2015-Aug-04 03:31N 49°28' E 000°12'0 0.0
2015-Aug-04 02:31N 49°28' E 000°12'0 0.1
2015-Aug-04 01:33N 49°28' E 000°12'1 1.3
2015-Aug-04 00:33N 49°28' E 000°10'10 9.6
2015-Aug-03 23:33N 49°31' W 000°05'6 6.2
2015-Aug-03 22:33N 49°33' W 000°13'1313.2
2015-Aug-03 21:33N 49°38' W 000°32'1818.1
2015-Aug-03 20:33N 49°46' W 000°58'21513.4
2015-Aug-03 04:33N 48°20' W 005°58'39814.7
2015-Aug-02 01:34N 42°15' W 009°45'3514.3
2015-Aug-01 23:07N 41°40' W 009°44'4014.1
2015-Aug-01 20:16N 40°60' W 009°42'1514.1
2015-Aug-01 19:12N 40°45' W 009°42'914.0
2015-Aug-01 18:34N 40°36' W 009°41'1414.0
2015-Aug-01 17:32N 40°22' W 009°47'1313.7
2015-Aug-01 16:33N 40°09' W 009°50'1414.1
2015-Aug-01 15:33N 39°55' W 009°50'1414.1
2015-Aug-01 14:33N 39°41' W 009°51'1413.8
2015-Aug-01 13:33N 39°27' W 009°51'1414.0
2015-Aug-01 12:33N 39°13' W 009°51'1414.0
2015-Aug-01 11:33N 38°59' W 009°51'1414.2
2015-Aug-01 10:33N 38°45' W 009°50'1313.5
2015-Aug-01 09:34N 38°32' W 009°47'1313.3
2015-Aug-01 08:33N 38°19' W 009°43'1313.2
2015-Aug-01 07:33N 38°06' W 009°39'1413.8
2015-Aug-01 06:33N 37°52' W 009°37'1413.8
2015-Aug-01 05:33N 37°39' W 009°33'4513.9
2015-Aug-01 02:20N 36°55' W 009°20'3813.1
2015-Jul-31 23:28N 36°36' W 008°40'312 6.3
2015-Jul-29 22:13N 36°27' W 002°12'1015.5
2015-Jul-29 21:32N 36°33' W 002°01'1814.8
2015-Jul-29 20:21N 36°44' W 001°45'1214.6
2015-Jul-29 19:33N 36°52' W 001°34'1515.0
2015-Jul-29 18:33N 37°02' W 001°20'1515.5
2015-Jul-29 17:33N 37°12' W 001°05'1615.6
2015-Jul-29 16:33N 37°23' W 000°51'1515.5
2015-Jul-29 15:33N 37°33' W 000°36'1515.3
2015-Jul-29 14:33N 37°45' W 000°25'1515.4
2015-Jul-29 13:33N 37°58' W 000°14'1515.2
2015-Jul-29 12:33N 38°11' W 000°04'1515.1
2015-Jul-29 11:33N 38°23' E 000°07'1515.2
2015-Jul-29 10:33N 38°36' E 000°18'1615.6
2015-Jul-29 09:32N 38°50' E 000°28'3415.2
2015-Jul-29 07:17N 39°20' E 000°49'3215.1
2015-Jul-29 05:09N 39°49' E 001°08'914.9
2015-Jul-29 04:33N 39°57' E 001°13'1515.2
2015-Jul-29 03:33N 40°10' E 001°22'1514.8
2015-Jul-29 02:31N 40°23' E 001°32'1515.3
2015-Jul-29 01:33N 40°36' E 001°42'137 4.0
2015-Jul-27 15:33N 42°13' E 003°51'1817.8
2015-Jul-27 14:33N 42°26' E 004°08'1817.7
2015-Jul-27 13:33N 42°40' E 004°24'1817.5
2015-Jul-27 12:33N 42°53' E 004°40'1716.7
2015-Jul-27 11:33N 43°05' E 004°54'1514.6
2015-Jul-27 10:34N 43°20' E 004°59'7 7.2
2015-Jul-27 09:33N 43°24' E 004°51'0 0.0
2015-Jul-27 08:33N 43°24' E 004°51'0 0.0
2015-Jul-27 07:33N 43°24' E 004°51'0 0.0
2015-Jul-27 06:33N 43°24' E 004°51'0 0.0
2015-Jul-27 05:33N 43°24' E 004°51'0 0.0
2015-Jul-27 04:33N 43°24' E 004°51'0 0.0
2015-Jul-27 03:33N 43°24' E 004°51'0 0.0
2015-Jul-27 02:33N 43°24' E 004°51'0 0.0
2015-Jul-27 01:33N 43°24' E 004°51'0 0.0
2015-Jul-27 00:33N 43°24' E 004°51'0 0.0
2015-Jul-26 23:33N 43°24' E 004°51'0 0.1
2015-Jul-26 22:33N 43°24' E 004°51'7 7.2
2015-Jul-26 21:34N 43°20' E 004°59'1010.1
2015-Jul-26 20:34N 43°11' E 005°03'1413.5
2015-Jul-26 19:33N 43°02' E 005°17'1515.3
2015-Jul-26 18:33N 42°58' E 005°37'1615.3
2015-Jul-26 17:31N 42°54' E 005°58'1414.9
2015-Jul-26 16:33N 42°52' E 006°18'1514.7
2015-Jul-26 15:33N 42°52' E 006°38'1414.2
2015-Jul-26 14:34N 42°54' E 006°57'1414.3
2015-Jul-26 13:33N 42°56' E 007°16'  

Dump ship's entire track history